sensor_id;sensor_type;location;lat;lon;timestamp;P1;durP1;ratioP1;P2;durP2;ratioP2
25531;SDS011;13429;48.816;9.118;2023-11-19T00:00:21;1.73;;;1.55;;
25531;SDS011;13429;48.816;9.118;2023-11-19T00:02:48;1.60;;;1.30;;
25531;SDS011;13429;48.816;9.118;2023-11-19T00:05:14;1.75;;;1.10;;
25531;SDS011;13429;48.816;9.118;2023-11-19T00:07:40;1.27;;;0.90;;
25531;SDS011;13429;48.816;9.118;2023-11-19T00:10:09;1.95;;;1.00;;
25531;SDS011;13429;48.816;9.118;2023-11-19T00:12:40;1.40;;;0.80;;
25531;SDS011;13429;48.816;9.118;2023-11-19T00:15:07;2.00;;;1.08;;
25531;SDS011;13429;48.816;9.118;2023-11-19T00:17:42;1.73;;;0.80;;
25531;SDS011;13429;48.816;9.118;2023-11-19T00:20:10;2.08;;;1.00;;
25531;SDS011;13429;48.816;9.118;2023-11-19T00:22:36;1.90;;;0.73;;
25531;SDS011;13429;48.816;9.118;2023-11-19T00:25:02;1.65;;;1.02;;
25531;SDS011;13429;48.816;9.118;2023-11-19T00:27:28;0.98;;;0.82;;
25531;SDS011;13429;48.816;9.118;2023-11-19T00:29:54;1.98;;;0.68;;
25531;SDS011;13429;48.816;9.118;2023-11-19T00:32:20;0.85;;;0.50;;
25531;SDS011;13429;48.816;9.118;2023-11-19T00:34:45;1.52;;;0.90;;
25531;SDS011;13429;48.816;9.118;2023-11-19T00:37:12;4.10;;;0.73;;
25531;SDS011;13429;48.816;9.118;2023-11-19T00:39:41;1.05;;;0.50;;
25531;SDS011;13429;48.816;9.118;2023-11-19T00:42:08;2.03;;;0.57;;
25531;SDS011;13429;48.816;9.118;2023-11-19T00:44:35;1.25;;;0.40;;
25531;SDS011;13429;48.816;9.118;2023-11-19T00:47:01;0.65;;;0.50;;
25531;SDS011;13429;48.816;9.118;2023-11-19T00:49:27;1.20;;;0.55;;
25531;SDS011;13429;48.816;9.118;2023-11-19T00:51:52;0.52;;;0.40;;
25531;SDS011;13429;48.816;9.118;2023-11-19T00:54:18;0.85;;;0.50;;
25531;SDS011;13429;48.816;9.118;2023-11-19T00:56:43;0.80;;;0.40;;
25531;SDS011;13429;48.816;9.118;2023-11-19T00:59:10;0.60;;;0.40;;
25531;SDS011;13429;48.816;9.118;2023-11-19T01:01:35;1.48;;;0.77;;
25531;SDS011;13429;48.816;9.118;2023-11-19T01:04:01;0.40;;;0.28;;
25531;SDS011;13429;48.816;9.118;2023-11-19T01:06:30;0.22;;;0.20;;
25531;SDS011;13429;48.816;9.118;2023-11-19T01:08:57;1.80;;;0.40;;
25531;SDS011;13429;48.816;9.118;2023-11-19T01:11:23;1.45;;;0.30;;
25531;SDS011;13429;48.816;9.118;2023-11-19T01:13:49;0.90;;;0.40;;
25531;SDS011;13429;48.816;9.118;2023-11-19T01:16:15;0.45;;;0.20;;
25531;SDS011;13429;48.816;9.118;2023-11-19T01:18:41;0.43;;;0.20;;
25531;SDS011;13429;48.816;9.118;2023-11-19T01:21:07;0.40;;;0.30;;
25531;SDS011;13429;48.816;9.118;2023-11-19T01:23:33;0.98;;;0.30;;
25531;SDS011;13429;48.816;9.118;2023-11-19T01:25:59;0.75;;;0.20;;
25531;SDS011;13429;48.816;9.118;2023-11-19T01:28:25;1.70;;;0.30;;
25531;SDS011;13429;48.816;9.118;2023-11-19T01:30:51;0.60;;;0.20;;
25531;SDS011;13429;48.816;9.118;2023-11-19T01:33:16;0.35;;;0.20;;
25531;SDS011;13429;48.816;9.118;2023-11-19T01:35:42;1.33;;;0.20;;
25531;SDS011;13429;48.816;9.118;2023-11-19T01:38:08;0.63;;;0.20;;
25531;SDS011;13429;48.816;9.118;2023-11-19T01:40:34;0.85;;;0.22;;
25531;SDS011;13429;48.816;9.118;2023-11-19T01:43:01;0.50;;;0.20;;
25531;SDS011;13429;48.816;9.118;2023-11-19T01:45:28;0.90;;;0.20;;
25531;SDS011;13429;48.816;9.118;2023-11-19T01:47:56;0.50;;;0.20;;
25531;SDS011;13429;48.816;9.118;2023-11-19T01:50:22;0.63;;;0.20;;
25531;SDS011;13429;48.816;9.118;2023-11-19T01:52:50;0.40;;;0.20;;
25531;SDS011;13429;48.816;9.118;2023-11-19T01:55:17;2.25;;;0.20;;
25531;SDS011;13429;48.816;9.118;2023-11-19T01:57:44;0.20;;;0.20;;
25531;SDS011;13429;48.816;9.118;2023-11-19T02:00:12;0.75;;;0.10;;
25531;SDS011;13429;48.816;9.118;2023-11-19T02:02:39;0.43;;;0.25;;
25531;SDS011;13429;48.816;9.118;2023-11-19T02:05:05;0.80;;;0.13;;
25531;SDS011;13429;48.816;9.118;2023-11-19T02:07:31;1.77;;;0.30;;
25531;SDS011;13429;48.816;9.118;2023-11-19T02:09:57;0.70;;;0.50;;
25531;SDS011;13429;48.816;9.118;2023-11-19T02:12:26;0.95;;;0.30;;
25531;SDS011;13429;48.816;9.118;2023-11-19T02:14:58;0.43;;;0.20;;
25531;SDS011;13429;48.816;9.118;2023-11-19T02:17:25;0.50;;;0.30;;
25531;SDS011;13429;48.816;9.118;2023-11-19T02:19:56;0.40;;;0.10;;
25531;SDS011;13429;48.816;9.118;2023-11-19T02:22:22;0.20;;;0.20;;
25531;SDS011;13429;48.816;9.118;2023-11-19T02:24:48;0.10;;;0.10;;
25531;SDS011;13429;48.816;9.118;2023-11-19T02:28:02;0.40;;;0.10;;
25531;SDS011;13429;48.816;9.118;2023-11-19T02:30:13;0.13;;;0.13;;
25531;SDS011;13429;48.816;9.118;2023-11-19T02:32:40;0.60;;;0.38;;
25531;SDS011;13429;48.816;9.118;2023-11-19T02:35:07;0.32;;;0.10;;
25531;SDS011;13429;48.816;9.118;2023-11-19T02:37:33;0.20;;;0.10;;
25531;SDS011;13429;48.816;9.118;2023-11-19T02:42:56;0.47;;;0.28;;
25531;SDS011;13429;48.816;9.118;2023-11-19T02:45:23;0.43;;;0.20;;
25531;SDS011;13429;48.816;9.118;2023-11-19T02:47:49;0.90;;;0.20;;
25531;SDS011;13429;48.816;9.118;2023-11-19T02:50:15;0.40;;;0.20;;
25531;SDS011;13429;48.816;9.118;2023-11-19T02:52:41;0.20;;;0.10;;
25531;SDS011;13429;48.816;9.118;2023-11-19T02:55:07;0.08;;;0.00;;
25531;SDS011;13429;48.816;9.118;2023-11-19T02:57:37;0.30;;;0.10;;
25531;SDS011;13429;48.816;9.118;2023-11-19T03:00:13;0.57;;;0.10;;
25531;SDS011;13429;48.816;9.118;2023-11-19T03:05:12;0.27;;;0.13;;
25531;SDS011;13429;48.816;9.118;2023-11-19T03:07:42;2.45;;;0.10;;
25531;SDS011;13429;48.816;9.118;2023-11-19T03:10:12;1.48;;;0.10;;
25531;SDS011;13429;48.816;9.118;2023-11-19T03:12:41;0.17;;;0.10;;
25531;SDS011;13429;48.816;9.118;2023-11-19T03:15:08;1.30;;;0.28;;
25531;SDS011;13429;48.816;9.118;2023-11-19T03:17:40;0.00;;;0.00;;
25531;SDS011;13429;48.816;9.118;2023-11-19T03:20:08;0.10;;;0.10;;
25531;SDS011;13429;48.816;9.118;2023-11-19T03:22:38;1.10;;;0.20;;
25531;SDS011;13429;48.816;9.118;2023-11-19T03:25:06;0.30;;;0.10;;
25531;SDS011;13429;48.816;9.118;2023-11-19T03:27:33;0.13;;;0.10;;
25531;SDS011;13429;48.816;9.118;2023-11-19T03:30:04;0.73;;;0.20;;
25531;SDS011;13429;48.816;9.118;2023-11-19T03:32:34;0.60;;;0.13;;
25531;SDS011;13429;48.816;9.118;2023-11-19T03:35:00;0.10;;;0.10;;
25531;SDS011;13429;48.816;9.118;2023-11-19T03:37:32;0.30;;;0.00;;
25531;SDS011;13429;48.816;9.118;2023-11-19T03:39:57;0.32;;;0.10;;
25531;SDS011;13429;48.816;9.118;2023-11-19T03:42:27;0.65;;;0.15;;
25531;SDS011;13429;48.816;9.118;2023-11-19T03:44:55;0.63;;;0.10;;
25531;SDS011;13429;48.816;9.118;2023-11-19T03:47:21;0.47;;;0.10;;
25531;SDS011;13429;48.816;9.118;2023-11-19T03:49:50;0.70;;;0.35;;
25531;SDS011;13429;48.816;9.118;2023-11-19T03:52:17;1.02;;;0.10;;
25531;SDS011;13429;48.816;9.118;2023-11-19T03:54:43;0.17;;;0.10;;
25531;SDS011;13429;48.816;9.118;2023-11-19T03:57:09;0.60;;;0.20;;
25531;SDS011;13429;48.816;9.118;2023-11-19T03:59:38;0.13;;;0.10;;
25531;SDS011;13429;48.816;9.118;2023-11-19T04:02:04;0.75;;;0.13;;
25531;SDS011;13429;48.816;9.118;2023-11-19T04:04:30;0.32;;;0.15;;
25531;SDS011;13429;48.816;9.118;2023-11-19T04:06:56;0.20;;;0.00;;
25531;SDS011;13429;48.816;9.118;2023-11-19T04:09:22;0.63;;;0.10;;
25531;SDS011;13429;48.816;9.118;2023-11-19T04:11:48;1.35;;;0.10;;
25531;SDS011;13429;48.816;9.118;2023-11-19T04:14:14;0.00;;;0.00;;
25531;SDS011;13429;48.816;9.118;2023-11-19T04:16:42;0.20;;;0.00;;
25531;SDS011;13429;48.816;9.118;2023-11-19T04:19:09;1.65;;;0.35;;
25531;SDS011;13429;48.816;9.118;2023-11-19T04:21:34;0.40;;;0.00;;
25531;SDS011;13429;48.816;9.118;2023-11-19T04:24:00;0.10;;;0.10;;
25531;SDS011;13429;48.816;9.118;2023-11-19T04:26:25;0.05;;;0.00;;
25531;SDS011;13429;48.816;9.118;2023-11-19T04:28:51;0.05;;;0.05;;
25531;SDS011;13429;48.816;9.118;2023-11-19T04:31:17;1.63;;;0.10;;
25531;SDS011;13429;48.816;9.118;2023-11-19T04:33:42;0.32;;;0.20;;
25531;SDS011;13429;48.816;9.118;2023-11-19T04:36:09;0.10;;;0.10;;
25531;SDS011;13429;48.816;9.118;2023-11-19T04:38:35;0.00;;;0.00;;
25531;SDS011;13429;48.816;9.118;2023-11-19T04:41:00;0.30;;;0.13;;
25531;SDS011;13429;48.816;9.118;2023-11-19T04:43:26;0.52;;;0.10;;
25531;SDS011;13429;48.816;9.118;2023-11-19T04:45:52;0.08;;;0.00;;
25531;SDS011;13429;48.816;9.118;2023-11-19T04:48:17;0.00;;;0.00;;
25531;SDS011;13429;48.816;9.118;2023-11-19T04:50:43;0.10;;;0.00;;
25531;SDS011;13429;48.816;9.118;2023-11-19T04:53:09;2.13;;;0.47;;
25531;SDS011;13429;48.816;9.118;2023-11-19T04:55:35;0.10;;;0.00;;
25531;SDS011;13429;48.816;9.118;2023-11-19T04:58:00;0.30;;;0.08;;
25531;SDS011;13429;48.816;9.118;2023-11-19T05:00:26;0.45;;;0.05;;
25531;SDS011;13429;48.816;9.118;2023-11-19T05:02:52;0.38;;;0.00;;
25531;SDS011;13429;48.816;9.118;2023-11-19T05:05:17;0.08;;;0.00;;
25531;SDS011;13429;48.816;9.118;2023-11-19T05:07:43;0.20;;;0.00;;
25531;SDS011;13429;48.816;9.118;2023-11-19T05:10:09;0.00;;;0.00;;
25531;SDS011;13429;48.816;9.118;2023-11-19T05:12:35;0.00;;;0.00;;
25531;SDS011;13429;48.816;9.118;2023-11-19T05:15:00;0.73;;;0.10;;
25531;SDS011;13429;48.816;9.118;2023-11-19T05:17:29;1.23;;;0.10;;
25531;SDS011;13429;48.816;9.118;2023-11-19T05:19:55;0.30;;;0.10;;
25531;SDS011;13429;48.816;9.118;2023-11-19T05:22:20;0.00;;;0.00;;
25531;SDS011;13429;48.816;9.118;2023-11-19T05:24:46;1.27;;;0.10;;
25531;SDS011;13429;48.816;9.118;2023-11-19T05:27:13;0.73;;;0.00;;
25531;SDS011;13429;48.816;9.118;2023-11-19T05:29:39;0.55;;;0.05;;
25531;SDS011;13429;48.816;9.118;2023-11-19T05:32:06;7.28;;;0.38;;
25531;SDS011;13429;48.816;9.118;2023-11-19T05:34:32;0.10;;;0.10;;
25531;SDS011;13429;48.816;9.118;2023-11-19T05:36:57;0.10;;;0.10;;
25531;SDS011;13429;48.816;9.118;2023-11-19T05:39:23;0.82;;;0.10;;
25531;SDS011;13429;48.816;9.118;2023-11-19T05:41:50;0.00;;;0.00;;
25531;SDS011;13429;48.816;9.118;2023-11-19T05:44:16;0.95;;;0.25;;
25531;SDS011;13429;48.816;9.118;2023-11-19T05:46:42;0.22;;;0.10;;
25531;SDS011;13429;48.816;9.118;2023-11-19T05:49:09;0.47;;;0.20;;
25531;SDS011;13429;48.816;9.118;2023-11-19T05:51:37;0.10;;;0.10;;
25531;SDS011;13429;48.816;9.118;2023-11-19T05:54:04;2.08;;;0.10;;
25531;SDS011;13429;48.816;9.118;2023-11-19T05:56:33;0.00;;;0.00;;
25531;SDS011;13429;48.816;9.118;2023-11-19T05:58:59;1.65;;;0.10;;
25531;SDS011;13429;48.816;9.118;2023-11-19T06:01:26;1.13;;;0.55;;
25531;SDS011;13429;48.816;9.118;2023-11-19T06:03:52;0.10;;;0.10;;
25531;SDS011;13429;48.816;9.118;2023-11-19T06:06:18;0.13;;;0.10;;
25531;SDS011;13429;48.816;9.118;2023-11-19T06:08:44;0.10;;;0.10;;
25531;SDS011;13429;48.816;9.118;2023-11-19T06:11:09;0.88;;;0.10;;
25531;SDS011;13429;48.816;9.118;2023-11-19T06:13:39;0.30;;;0.13;;
25531;SDS011;13429;48.816;9.118;2023-11-19T06:16:05;0.30;;;0.20;;
25531;SDS011;13429;48.816;9.118;2023-11-19T06:18:31;0.20;;;0.03;;
25531;SDS011;13429;48.816;9.118;2023-11-19T06:20:57;0.70;;;0.20;;
25531;SDS011;13429;48.816;9.118;2023-11-19T06:23:23;0.30;;;0.30;;
25531;SDS011;13429;48.816;9.118;2023-11-19T06:25:48;0.22;;;0.20;;
25531;SDS011;13429;48.816;9.118;2023-11-19T06:28:14;0.38;;;0.20;;
25531;SDS011;13429;48.816;9.118;2023-11-19T06:30:40;1.48;;;0.20;;
25531;SDS011;13429;48.816;9.118;2023-11-19T06:33:06;1.38;;;0.30;;
25531;SDS011;13429;48.816;9.118;2023-11-19T06:35:32;0.40;;;0.22;;
25531;SDS011;13429;48.816;9.118;2023-11-19T06:38:02;1.55;;;0.20;;
25531;SDS011;13429;48.816;9.118;2023-11-19T06:40:29;6.20;;;0.30;;
25531;SDS011;13429;48.816;9.118;2023-11-19T06:42:55;0.38;;;0.20;;
25531;SDS011;13429;48.816;9.118;2023-11-19T06:45:21;0.98;;;0.20;;
25531;SDS011;13429;48.816;9.118;2023-11-19T06:47:47;0.45;;;0.10;;
25531;SDS011;13429;48.816;9.118;2023-11-19T06:50:12;0.25;;;0.17;;
25531;SDS011;13429;48.816;9.118;2023-11-19T06:52:40;0.20;;;0.20;;
25531;SDS011;13429;48.816;9.118;2023-11-19T06:55:05;0.50;;;0.30;;
25531;SDS011;13429;48.816;9.118;2023-11-19T06:57:32;0.70;;;0.47;;
25531;SDS011;13429;48.816;9.118;2023-11-19T06:59:58;0.43;;;0.20;;
25531;SDS011;13429;48.816;9.118;2023-11-19T07:02:24;0.90;;;0.10;;
25531;SDS011;13429;48.816;9.118;2023-11-19T07:04:50;0.38;;;0.17;;
25531;SDS011;13429;48.816;9.118;2023-11-19T07:07:16;0.10;;;0.10;;
25531;SDS011;13429;48.816;9.118;2023-11-19T07:09:42;0.55;;;0.28;;
25531;SDS011;13429;48.816;9.118;2023-11-19T07:12:08;0.47;;;0.20;;
25531;SDS011;13429;48.816;9.118;2023-11-19T07:14:34;0.80;;;0.28;;
25531;SDS011;13429;48.816;9.118;2023-11-19T07:16:59;0.65;;;0.40;;
25531;SDS011;13429;48.816;9.118;2023-11-19T07:19:25;1.52;;;0.10;;
25531;SDS011;13429;48.816;9.118;2023-11-19T07:21:51;0.10;;;0.10;;
25531;SDS011;13429;48.816;9.118;2023-11-19T07:24:19;1.98;;;0.30;;
25531;SDS011;13429;48.816;9.118;2023-11-19T07:26:46;0.82;;;0.22;;
25531;SDS011;13429;48.816;9.118;2023-11-19T07:29:12;0.52;;;0.45;;
25531;SDS011;13429;48.816;9.118;2023-11-19T07:31:38;0.88;;;0.20;;
25531;SDS011;13429;48.816;9.118;2023-11-19T07:34:04;0.70;;;0.10;;
25531;SDS011;13429;48.816;9.118;2023-11-19T07:36:31;0.68;;;0.20;;
25531;SDS011;13429;48.816;9.118;2023-11-19T07:38:57;0.70;;;0.25;;
25531;SDS011;13429;48.816;9.118;2023-11-19T07:41:23;2.13;;;0.20;;
25531;SDS011;13429;48.816;9.118;2023-11-19T07:43:50;0.10;;;0.10;;
25531;SDS011;13429;48.816;9.118;2023-11-19T07:46:16;0.28;;;0.10;;
25531;SDS011;13429;48.816;9.118;2023-11-19T07:48:44;1.17;;;0.10;;
25531;SDS011;13429;48.816;9.118;2023-11-19T07:51:12;0.13;;;0.13;;
25531;SDS011;13429;48.816;9.118;2023-11-19T07:53:38;3.80;;;0.30;;
25531;SDS011;13429;48.816;9.118;2023-11-19T07:56:04;1.20;;;0.15;;
25531;SDS011;13429;48.816;9.118;2023-11-19T07:58:31;0.20;;;0.10;;
25531;SDS011;13429;48.816;9.118;2023-11-19T08:00:56;1.70;;;0.20;;
25531;SDS011;13429;48.816;9.118;2023-11-19T08:03:22;1.23;;;0.77;;
25531;SDS011;13429;48.816;9.118;2023-11-19T08:05:48;2.00;;;1.00;;
25531;SDS011;13429;48.816;9.118;2023-11-19T08:08:14;1.67;;;1.33;;
25531;SDS011;13429;48.816;9.118;2023-11-19T08:10:40;5.55;;;3.97;;
25531;SDS011;13429;48.816;9.118;2023-11-19T08:13:05;8.90;;;6.68;;
25531;SDS011;13429;48.816;9.118;2023-11-19T08:15:32;1.30;;;0.80;;
25531;SDS011;13429;48.816;9.118;2023-11-19T08:17:58;2.67;;;0.32;;
25531;SDS011;13429;48.816;9.118;2023-11-19T08:20:23;0.20;;;0.20;;
25531;SDS011;13429;48.816;9.118;2023-11-19T08:22:49;1.63;;;0.30;;
25531;SDS011;13429;48.816;9.118;2023-11-19T08:25:15;0.20;;;0.10;;
25531;SDS011;13429;48.816;9.118;2023-11-19T08:27:41;0.52;;;0.30;;
25531;SDS011;13429;48.816;9.118;2023-11-19T08:30:07;2.28;;;0.45;;
25531;SDS011;13429;48.816;9.118;2023-11-19T08:32:32;3.92;;;0.57;;
25531;SDS011;13429;48.816;9.118;2023-11-19T08:34:59;0.88;;;0.30;;
25531;SDS011;13429;48.816;9.118;2023-11-19T08:37:25;0.98;;;0.60;;
25531;SDS011;13429;48.816;9.118;2023-11-19T08:39:50;1.75;;;0.73;;
25531;SDS011;13429;48.816;9.118;2023-11-19T08:42:16;1.30;;;0.88;;
25531;SDS011;13429;48.816;9.118;2023-11-19T08:44:42;1.63;;;0.70;;
25531;SDS011;13429;48.816;9.118;2023-11-19T08:47:09;1.85;;;0.80;;
25531;SDS011;13429;48.816;9.118;2023-11-19T08:49:36;2.03;;;0.70;;
25531;SDS011;13429;48.816;9.118;2023-11-19T08:52:01;1.77;;;0.73;;
25531;SDS011;13429;48.816;9.118;2023-11-19T08:54:27;0.68;;;0.30;;
25531;SDS011;13429;48.816;9.118;2023-11-19T08:56:53;0.47;;;0.30;;
25531;SDS011;13429;48.816;9.118;2023-11-19T08:59:18;0.65;;;0.20;;
25531;SDS011;13429;48.816;9.118;2023-11-19T09:01:44;1.35;;;0.30;;
25531;SDS011;13429;48.816;9.118;2023-11-19T09:04:10;0.82;;;0.30;;
25531;SDS011;13429;48.816;9.118;2023-11-19T09:06:36;1.33;;;0.30;;
25531;SDS011;13429;48.816;9.118;2023-11-19T09:09:01;1.15;;;0.30;;
25531;SDS011;13429;48.816;9.118;2023-11-19T09:11:31;0.20;;;0.20;;
25531;SDS011;13429;48.816;9.118;2023-11-19T09:13:57;0.60;;;0.35;;
25531;SDS011;13429;48.816;9.118;2023-11-19T09:16:23;2.78;;;0.50;;
25531;SDS011;13429;48.816;9.118;2023-11-19T09:18:49;2.45;;;0.50;;
25531;SDS011;13429;48.816;9.118;2023-11-19T09:21:15;1.25;;;0.40;;
25531;SDS011;13429;48.816;9.118;2023-11-19T09:23:40;1.45;;;0.30;;
25531;SDS011;13429;48.816;9.118;2023-11-19T09:26:06;0.47;;;0.32;;
25531;SDS011;13429;48.816;9.118;2023-11-19T09:28:35;1.35;;;0.73;;
25531;SDS011;13429;48.816;9.118;2023-11-19T09:31:00;1.58;;;0.35;;
25531;SDS011;13429;48.816;9.118;2023-11-19T09:33:29;1.55;;;0.50;;
25531;SDS011;13429;48.816;9.118;2023-11-19T09:35:55;2.92;;;0.90;;
25531;SDS011;13429;48.816;9.118;2023-11-19T09:38:21;2.78;;;1.48;;
25531;SDS011;13429;48.816;9.118;2023-11-19T09:40:46;1.58;;;0.80;;
25531;SDS011;13429;48.816;9.118;2023-11-19T09:43:12;2.90;;;0.90;;
25531;SDS011;13429;48.816;9.118;2023-11-19T09:45:49;3.63;;;1.10;;
25531;SDS011;13429;48.816;9.118;2023-11-19T09:48:19;4.82;;;1.10;;
25531;SDS011;13429;48.816;9.118;2023-11-19T09:50:48;2.17;;;0.50;;
25531;SDS011;13429;48.816;9.118;2023-11-19T09:53:15;0.60;;;0.40;;
25531;SDS011;13429;48.816;9.118;2023-11-19T09:55:41;0.88;;;0.50;;
25531;SDS011;13429;48.816;9.118;2023-11-19T09:58:07;1.45;;;0.60;;
25531;SDS011;13429;48.816;9.118;2023-11-19T10:00:33;1.73;;;0.57;;
25531;SDS011;13429;48.816;9.118;2023-11-19T10:02:59;1.77;;;0.60;;
25531;SDS011;13429;48.816;9.118;2023-11-19T10:05:27;6.07;;;0.73;;
25531;SDS011;13429;48.816;9.118;2023-11-19T10:07:52;1.10;;;0.60;;
25531;SDS011;13429;48.816;9.118;2023-11-19T10:10:20;2.95;;;0.60;;
25531;SDS011;13429;48.816;9.118;2023-11-19T10:12:46;2.13;;;0.47;;
25531;SDS011;13429;48.816;9.118;2023-11-19T10:15:21;1.27;;;0.52;;
25531;SDS011;13429;48.816;9.118;2023-11-19T10:17:51;1.98;;;0.80;;
25531;SDS011;13429;48.816;9.118;2023-11-19T10:20:23;1.50;;;0.50;;
25531;SDS011;13429;48.816;9.118;2023-11-19T10:22:52;5.40;;;0.52;;
25531;SDS011;13429;48.816;9.118;2023-11-19T10:27:52;1.38;;;0.40;;
25531;SDS011;13429;48.816;9.118;2023-11-19T10:30:25;1.23;;;0.45;;
25531;SDS011;13429;48.816;9.118;2023-11-19T10:33:02;2.47;;;0.47;;
25531;SDS011;13429;48.816;9.118;2023-11-19T10:38:19;2.13;;;0.50;;
25531;SDS011;13429;48.816;9.118;2023-11-19T10:40:45;2.15;;;0.40;;
25531;SDS011;13429;48.816;9.118;2023-11-19T10:43:12;0.93;;;0.40;;
25531;SDS011;13429;48.816;9.118;2023-11-19T10:45:38;0.95;;;0.38;;
25531;SDS011;13429;48.816;9.118;2023-11-19T10:48:04;1.98;;;0.50;;
25531;SDS011;13429;48.816;9.118;2023-11-19T10:50:32;2.88;;;0.60;;
25531;SDS011;13429;48.816;9.118;2023-11-19T10:52:59;1.33;;;0.57;;
25531;SDS011;13429;48.816;9.118;2023-11-19T10:55:32;1.38;;;0.43;;
25531;SDS011;13429;48.816;9.118;2023-11-19T10:58:01;1.10;;;0.50;;
25531;SDS011;13429;48.816;9.118;2023-11-19T11:01:15;1.60;;;0.60;;
25531;SDS011;13429;48.816;9.118;2023-11-19T11:03:24;2.95;;;0.50;;
25531;SDS011;13429;48.816;9.118;2023-11-19T11:05:52;3.33;;;0.70;;
25531;SDS011;13429;48.816;9.118;2023-11-19T11:08:18;5.53;;;0.80;;
25531;SDS011;13429;48.816;9.118;2023-11-19T11:13:16;0.75;;;0.50;;
25531;SDS011;13429;48.816;9.118;2023-11-19T11:15:43;2.35;;;0.40;;
25531;SDS011;13429;48.816;9.118;2023-11-19T11:18:11;1.23;;;0.30;;
25531;SDS011;13429;48.816;9.118;2023-11-19T11:20:38;1.58;;;0.50;;
25531;SDS011;13429;48.816;9.118;2023-11-19T11:36:34;0.98;;;0.52;;
25531;SDS011;13429;48.816;9.118;2023-11-19T11:39:16;1.67;;;0.60;;
25531;SDS011;13429;48.816;9.118;2023-11-19T11:41:42;3.00;;;0.63;;
25531;SDS011;13429;48.816;9.118;2023-11-19T11:44:08;2.78;;;1.23;;
25531;SDS011;13429;48.816;9.118;2023-11-19T11:49:02;1.00;;;0.40;;
25531;SDS011;13429;48.816;9.118;2023-11-19T11:54:31;2.00;;;0.82;;
25531;SDS011;13429;48.816;9.118;2023-11-19T11:57:12;1.23;;;0.65;;
25531;SDS011;13429;48.816;9.118;2023-11-19T12:02:07;1.77;;;0.60;;
25531;SDS011;13429;48.816;9.118;2023-11-19T12:04:34;2.83;;;1.10;;
25531;SDS011;13429;48.816;9.118;2023-11-19T12:09:31;0.90;;;0.43;;
25531;SDS011;13429;48.816;9.118;2023-11-19T12:12:07;1.60;;;0.50;;
25531;SDS011;13429;48.816;9.118;2023-11-19T12:15:12;2.75;;;0.68;;
25531;SDS011;13429;48.816;9.118;2023-11-19T12:17:48;1.95;;;0.70;;
25531;SDS011;13429;48.816;9.118;2023-11-19T12:20:15;1.98;;;0.63;;
25531;SDS011;13429;48.816;9.118;2023-11-19T12:22:42;2.85;;;0.80;;
25531;SDS011;13429;48.816;9.118;2023-11-19T12:25:09;1.58;;;0.50;;
25531;SDS011;13429;48.816;9.118;2023-11-19T12:27:37;0.50;;;0.30;;
25531;SDS011;13429;48.816;9.118;2023-11-19T12:30:05;3.50;;;0.57;;
25531;SDS011;13429;48.816;9.118;2023-11-19T12:32:41;2.00;;;0.50;;
25531;SDS011;13429;48.816;9.118;2023-11-19T12:35:08;2.72;;;0.57;;
25531;SDS011;13429;48.816;9.118;2023-11-19T12:37:47;3.10;;;0.50;;
25531;SDS011;13429;48.816;9.118;2023-11-19T12:40:32;2.95;;;0.80;;
25531;SDS011;13429;48.816;9.118;2023-11-19T12:42:58;1.65;;;0.57;;
25531;SDS011;13429;48.816;9.118;2023-11-19T12:45:33;1.08;;;0.40;;
25531;SDS011;13429;48.816;9.118;2023-11-19T12:48:06;1.48;;;0.50;;
25531;SDS011;13429;48.816;9.118;2023-11-19T12:53:20;2.38;;;0.50;;
25531;SDS011;13429;48.816;9.118;2023-11-19T12:55:47;3.97;;;0.60;;
25531;SDS011;13429;48.816;9.118;2023-11-19T13:01:02;1.35;;;0.60;;
25531;SDS011;13429;48.816;9.118;2023-11-19T13:03:29;1.08;;;0.40;;
25531;SDS011;13429;48.816;9.118;2023-11-19T13:06:03;1.40;;;0.88;;
25531;SDS011;13429;48.816;9.118;2023-11-19T13:08:29;4.38;;;0.60;;
25531;SDS011;13429;48.816;9.118;2023-11-19T13:11:02;1.83;;;0.57;;
25531;SDS011;13429;48.816;9.118;2023-11-19T13:13:28;4.18;;;0.50;;
25531;SDS011;13429;48.816;9.118;2023-11-19T13:16:01;2.70;;;0.40;;
25531;SDS011;13429;48.816;9.118;2023-11-19T13:18:30;0.70;;;0.40;;
25531;SDS011;13429;48.816;9.118;2023-11-19T13:20:56;1.40;;;0.52;;
25531;SDS011;13429;48.816;9.118;2023-11-19T13:23:24;2.13;;;0.90;;
25531;SDS011;13429;48.816;9.118;2023-11-19T13:25:50;3.17;;;0.60;;
25531;SDS011;13429;48.816;9.118;2023-11-19T13:28:15;2.05;;;0.40;;
25531;SDS011;13429;48.816;9.118;2023-11-19T13:30:41;1.40;;;0.40;;
25531;SDS011;13429;48.816;9.118;2023-11-19T13:33:06;0.93;;;0.43;;
25531;SDS011;13429;48.816;9.118;2023-11-19T13:35:32;2.17;;;0.82;;
25531;SDS011;13429;48.816;9.118;2023-11-19T13:37:58;3.50;;;0.60;;
25531;SDS011;13429;48.816;9.118;2023-11-19T13:40:23;1.90;;;0.77;;
25531;SDS011;13429;48.816;9.118;2023-11-19T13:42:50;2.42;;;0.70;;
25531;SDS011;13429;48.816;9.118;2023-11-19T13:45:16;1.33;;;0.40;;
25531;SDS011;13429;48.816;9.118;2023-11-19T13:47:44;1.02;;;0.30;;
25531;SDS011;13429;48.816;9.118;2023-11-19T13:50:14;2.30;;;0.35;;
25531;SDS011;13429;48.816;9.118;2023-11-19T13:52:42;0.90;;;0.40;;
25531;SDS011;13429;48.816;9.118;2023-11-19T13:55:10;1.35;;;0.40;;
25531;SDS011;13429;48.816;9.118;2023-11-19T13:57:36;1.30;;;0.60;;
25531;SDS011;13429;48.816;9.118;2023-11-19T14:00:03;1.42;;;0.70;;
25531;SDS011;13429;48.816;9.118;2023-11-19T14:02:37;0.68;;;0.30;;
25531;SDS011;13429;48.816;9.118;2023-11-19T14:05:05;1.77;;;0.50;;
25531;SDS011;13429;48.816;9.118;2023-11-19T14:07:30;1.35;;;0.57;;
25531;SDS011;13429;48.816;9.118;2023-11-19T14:09:56;2.25;;;0.57;;
25531;SDS011;13429;48.816;9.118;2023-11-19T14:12:22;2.35;;;0.73;;
25531;SDS011;13429;48.816;9.118;2023-11-19T14:14:47;1.00;;;0.45;;
25531;SDS011;13429;48.816;9.118;2023-11-19T14:17:13;4.32;;;0.82;;
25531;SDS011;13429;48.816;9.118;2023-11-19T14:19:40;3.17;;;1.40;;
25531;SDS011;13429;48.816;9.118;2023-11-19T14:22:07;1.50;;;0.63;;
25531;SDS011;13429;48.816;9.118;2023-11-19T14:24:33;2.15;;;0.50;;
25531;SDS011;13429;48.816;9.118;2023-11-19T14:26:59;2.22;;;0.82;;
25531;SDS011;13429;48.816;9.118;2023-11-19T14:29:26;3.72;;;0.80;;
25531;SDS011;13429;48.816;9.118;2023-11-19T14:31:53;1.85;;;0.80;;
25531;SDS011;13429;48.816;9.118;2023-11-19T14:34:19;1.90;;;0.80;;
25531;SDS011;13429;48.816;9.118;2023-11-19T14:36:45;1.05;;;0.50;;
25531;SDS011;13429;48.816;9.118;2023-11-19T14:39:11;3.30;;;0.82;;
25531;SDS011;13429;48.816;9.118;2023-11-19T14:41:37;3.92;;;0.70;;
25531;SDS011;13429;48.816;9.118;2023-11-19T14:44:03;2.10;;;0.55;;
25531;SDS011;13429;48.816;9.118;2023-11-19T14:46:30;2.13;;;0.73;;
25531;SDS011;13429;48.816;9.118;2023-11-19T14:48:56;1.50;;;0.50;;
25531;SDS011;13429;48.816;9.118;2023-11-19T14:51:21;3.30;;;0.73;;
25531;SDS011;13429;48.816;9.118;2023-11-19T14:53:47;2.03;;;0.45;;
25531;SDS011;13429;48.816;9.118;2023-11-19T14:56:13;2.28;;;0.63;;
25531;SDS011;13429;48.816;9.118;2023-11-19T14:58:39;1.40;;;0.50;;
25531;SDS011;13429;48.816;9.118;2023-11-19T15:01:05;1.77;;;0.60;;
25531;SDS011;13429;48.816;9.118;2023-11-19T15:03:32;1.52;;;0.60;;
25531;SDS011;13429;48.816;9.118;2023-11-19T15:05:58;2.90;;;0.60;;
25531;SDS011;13429;48.816;9.118;2023-11-19T15:08:24;1.70;;;0.70;;
25531;SDS011;13429;48.816;9.118;2023-11-19T15:10:50;1.80;;;0.43;;
25531;SDS011;13429;48.816;9.118;2023-11-19T15:13:15;1.48;;;0.77;;
25531;SDS011;13429;48.816;9.118;2023-11-19T15:15:41;1.80;;;0.43;;
25531;SDS011;13429;48.816;9.118;2023-11-19T15:18:07;2.88;;;0.60;;
25531;SDS011;13429;48.816;9.118;2023-11-19T15:20:34;3.03;;;0.88;;
25531;SDS011;13429;48.816;9.118;2023-11-19T15:23:01;2.92;;;0.85;;
25531;SDS011;13429;48.816;9.118;2023-11-19T15:25:27;1.85;;;0.60;;
25531;SDS011;13429;48.816;9.118;2023-11-19T15:27:52;3.50;;;0.60;;
25531;SDS011;13429;48.816;9.118;2023-11-19T15:30:18;3.28;;;0.82;;